Flight Track Log - Related Links

Times and Time Zones

All times are in EDT time to prevent confusion due to time zone crossing. See the SKW7363 flight status page for this flight to view local times or setup timezone preferences in your user account.

Time Position Orientation Groundspeed Altitude Reporting Facility
EDT Latitude Longitude Course Direction KTS MPH feet Rate Location/Type
Fri 11:59:10 AM 48.4447 -93.4100 194° South 233 268 5,300  Level Minneapolis Center
Fri 12:00:12 PM 48.3700 -93.4322 191° South 253 291 8,100 2,806 Climbing Minneapolis Center
Fri 12:01:00 PM 48.0006 -93.3728 195° South  Level Estimated
Fri 12:01:14 PM 48.2739 -93.4600 191° South 277 319 11,100  Level Minneapolis Center
Fri 12:02:00 PM 47.9065 -93.3680 191° South  Level Estimated
Fri 12:02:17 PM 48.1869 -93.4856 191° South 297 342 12,300  Level Minneapolis Center
Fri 12:03:00 PM 47.8347 -93.4591 220° Southwest  Level FlightAware Approximate
Fri 12:03:19 PM 48.0900 -93.5167 192° South 328 377 13,900  Level Minneapolis Center
Fri 12:04:21 PM 47.9903 -93.5461 191° South 352 405 15,300 1,306 Climbing Minneapolis Center
Fri 12:05:23 PM 47.8892 -93.5778 192° South 367 422 16,600 1,210 Climbing Minneapolis Center
Fri 12:06:25 PM 47.7639 -93.6144 191° South 376 433 17,800 1,161 Climbing Minneapolis Center
Fri 12:07:27 PM 47.6578 -93.6469 192° South 387 445 19,000 1,016 Climbing Minneapolis Center
Fri 12:08:29 PM 47.5497 -93.6781 191° South 394 453 19,900 794 Climbing Minneapolis Center
Fri 12:09:43 PM 47.4167 -93.7189 192° South 405 466 20,800 832 Climbing Minneapolis Center
Fri 12:10:46 PM 47.2819 -93.7583 191° South 412 474 21,800 816 Climbing Minneapolis Center
Fri 12:11:48 PM 47.1678 -93.7919 191° South 416 479 22,500 726 Climbing Minneapolis Center
Fri 12:12:50 PM 47.0533 -93.8258 191° South 421 484 23,300 726 Climbing Minneapolis Center
Fri 12:13:52 PM 46.9367 -93.8594 191° South 427 491 24,000 629 Climbing Minneapolis Center
Fri 12:14:54 PM 46.8178 -93.8939 191° South 434 499 24,600 629 Climbing Minneapolis Center
Fri 12:15:56 PM 46.6981 -93.9283 191° South 440 506 25,300 677 Climbing Minneapolis Center
Fri 12:16:58 PM 46.5517 -93.9714 191° South 449 517 26,000 726 Climbing Minneapolis Center
Fri 12:18:00 PM 46.4278 -94.0067 191° South 456 525 26,800 484 Climbing Minneapolis Center
Fri 12:19:02 PM 46.3044 -94.0044 179° South 459 528 27,000 97 Climbing Minneapolis Center
Fri 12:20:04 PM 46.1806 -93.9364 159° South 468 539 27,000  Level Minneapolis Center
Fri 12:21:06 PM 46.0569 -93.8692 159° South 474 545 27,000  Level Minneapolis Center
Fri 12:22:08 PM 45.9314 -93.8017 159° South 480 552 27,000 -1,445 Level Minneapolis Center
Fri 12:23:23 PM 45.7561 -93.7025 158° South 484 557 23,700 -2,628 Descending Minneapolis Center
Fri 12:24:25 PM 45.6364 -93.6375 159° South 467 537 21,000 -2,516 Descending Minneapolis Center
Fri 12:25:27 PM 45.5231 -93.5756 159° South 444 511 18,500 -2,274 Descending Minneapolis Center
Fri 12:26:29 PM 45.4133 -93.5164 159° South 423 487 16,300 -2,274 Descending Minneapolis Center
Fri 12:27:31 PM 45.3100 -93.4608 159° South 401 461 13,800 -2,516 Descending Minneapolis Center
Fri 12:28:33 PM 45.1903 -93.3969 159° South 375 432 11,100 -1,645 Descending Minneapolis Center
Fri 12:29:35 PM 45.1133 -93.3561 159° South 289 333 10,400 -968 Descending Minneapolis Center
Fri 12:30:37 PM 45.0397 -93.3158 159° South 284 327 9,100 -960 Descending Minneapolis Center
Fri 12:31:40 PM 44.9844 -93.2425 137° Southeast 281 323 8,400 -960 Descending Minneapolis Center
Fri 12:32:42 PM 44.9450 -93.1653 126° Southeast 241 277 7,100 -1,161 Descending Minneapolis Center
Fri 12:33:44 PM 44.9072 -93.0919 126° Southeast 229 264 6,000 -1,210 Descending Minneapolis Center
Fri 12:34:46 PM 44.8697 -93.0164 125° Southeast 233 268 4,600 -1,065 Descending Minneapolis Center
Fri 12:35:48 PM 44.8250 -93.0486 207° Southwest 203 234 3,800 -1,113 Descending Minneapolis Center
Fri 12:36:50 PM 44.8467 -93.1139 295° West 187 215 2,300 -1,113 Descending Minneapolis Center
Fri 12:37:52 PM 44.8678 -93.1622 302° West 150 173 1,500 -774 Descending Minneapolis Center

Login

Don't have an account? Register now (free) for customized features, flight alerts, and more!